createdAt,value
2023-02-02T05:55:03.946Z,98992.56
2023-02-02T05:57:30.844Z,98997.66
2023-02-02T05:59:57.455Z,99005.02
2023-02-02T06:02:24.237Z,99003.55
2023-02-02T06:04:50.888Z,99002.95
2023-02-02T06:07:17.597Z,99006.81
2023-02-02T06:09:44.458Z,99013.11
2023-02-02T06:12:11.690Z,99012.59
2023-02-02T06:14:38.420Z,99013.77
2023-02-02T06:17:06.197Z,99014.08
2023-02-02T06:19:33.003Z,99017.24
2023-02-02T06:21:59.893Z,99019.15
2023-02-02T06:24:29.267Z,99022.20
2023-02-02T06:26:56.655Z,99024.96
2023-02-02T06:29:30.967Z,99026.72
2023-02-02T06:31:58.987Z,99034.91
2023-02-02T06:34:40.470Z,99033.11
2023-02-02T06:37:11.103Z,99037.02
2023-02-02T06:39:39.434Z,99036.55
2023-02-02T06:42:20.811Z,99040.77
2023-02-02T06:45:00.575Z,99042.12
2023-02-02T06:47:28.194Z,99040.27
2023-02-02T06:49:56.330Z,99039.71
2023-02-02T06:52:26.119Z,99036.27
2023-02-02T06:54:55.332Z,99035.33
2023-02-02T06:57:23.792Z,99039.17
2023-02-02T06:59:54.745Z,99042.33
2023-02-02T07:02:24.306Z,99044.66
2023-02-02T07:04:51.935Z,99047.13
2023-02-02T07:07:18.815Z,99045.98
2023-02-02T07:09:45.561Z,99047.93
2023-02-02T07:12:12.658Z,99049.96
2023-02-02T07:16:36.088Z,99051.35
2023-02-02T07:19:05.515Z,99050.02
2023-02-02T07:21:36.496Z,99049.09
2023-02-02T07:24:06.824Z,99049.56
2023-02-02T07:26:36.133Z,99053.83
2023-02-02T07:29:05.060Z,99050.16
2023-02-02T07:31:38.607Z,99048.80
2023-02-02T07:34:07.212Z,99045.66
2023-02-02T07:36:35.609Z,99049.11
2023-02-02T07:39:05.692Z,99052.09
2023-02-02T07:41:36.818Z,99054.08
2023-02-02T07:44:07.426Z,99052.23
2023-02-02T07:46:35.955Z,99051.87
2023-02-02T07:49:07.347Z,99048.96
2023-02-02T07:51:40.911Z,99049.10
2023-02-02T07:54:10.862Z,99056.14
2023-02-02T07:56:40.051Z,99052.08
2023-02-02T07:59:10.968Z,99054.23
2023-02-02T08:01:39.892Z,99052.06
2023-02-02T08:04:08.636Z,99052.39
2023-02-02T08:06:42.264Z,99054.04
2023-02-02T08:09:16.755Z,99059.27
2023-02-02T08:11:52.751Z,99059.60
2023-02-02T08:14:24.161Z,99057.27
2023-02-02T08:16:52.687Z,99063.23
2023-02-02T08:19:23.072Z,99068.41
2023-02-02T08:21:53.523Z,99068.09
2023-02-02T08:24:22.914Z,99070.42
2023-02-02T08:26:54.909Z,99070.04
2023-02-02T08:29:24.887Z,99071.98
2023-02-02T08:31:55.901Z,99076.86
2023-02-02T08:34:37.798Z,99073.59
2023-02-02T08:37:12.736Z,99071.33
2023-02-02T08:39:42.808Z,99071.42
2023-02-02T08:42:11.319Z,99074.13
2023-02-02T08:46:07.791Z,99077.23
2023-02-02T08:47:39.086Z,99071.63
2023-02-02T08:50:19.840Z,99073.95
2023-02-02T08:52:55.650Z,99071.58
2023-02-02T08:55:32.220Z,99071.80
2023-02-02T08:58:11.443Z,99072.98
2023-02-02T09:00:41.432Z,99073.45
2023-02-02T09:03:12.128Z,99073.60
2023-02-02T09:06:12.028Z,99071.98
2023-02-02T13:34:17.456Z,99104.01
2023-02-02T13:36:57.866Z,99101.16
2023-02-02T13:40:01.538Z,99103.55
2023-02-02T13:42:45.970Z,99102.16
2023-02-02T13:45:34.466Z,99106.48
2023-02-02T13:48:32.483Z,99106.02
2023-02-02T13:51:39.205Z,99105.89
2023-02-02T13:54:24.775Z,99108.59
2023-02-02T13:57:29.618Z,99118.16
2023-02-02T14:00:04.273Z,99122.80
2023-02-02T14:02:44.038Z,99123.30
2023-02-02T14:05:22.486Z,99127.02
2023-02-02T14:08:06.532Z,99123.73
2023-02-02T14:10:39.682Z,99121.48
2023-02-02T14:13:40.550Z,99123.65
2023-02-02T14:16:18.706Z,99124.71
2023-02-02T14:18:49.932Z,99124.61
2023-02-02T14:21:35.170Z,99126.14
2023-02-02T14:27:13.628Z,99136.20
2023-02-02T14:29:46.187Z,99136.77
2023-02-02T14:32:29.087Z,99134.75
2023-02-02T14:35:00.557Z,99136.95
2023-02-02T14:37:40.643Z,99136.19
2023-02-02T14:40:10.357Z,99135.34
2023-02-02T14:43:24.297Z,99133.14
2023-02-02T14:46:14.292Z,99140.54
2023-02-02T14:48:48.088Z,99141.18
2023-02-02T14:51:24.755Z,99143.19
2023-02-02T14:53:53.855Z,99142.67
2023-02-02T14:56:55.454Z,99144.65
2023-02-02T14:59:37.098Z,99157.38
2023-02-02T15:02:25.347Z,99156.59
2023-02-02T15:04:53.571Z,99162.90
2023-02-02T15:07:24.566Z,99166.63
2023-02-02T15:09:57.550Z,99167.33
2023-02-02T15:12:29.260Z,99172.92
2023-02-02T15:15:36.510Z,99172.38
2023-02-02T15:18:15.354Z,99176.98
2023-02-02T15:20:49.021Z,99177.75
2023-02-02T15:23:34.787Z,99182.02
2023-02-02T15:26:16.580Z,99183.05
2023-02-02T15:29:07.548Z,99186.42
2023-02-02T15:31:51.400Z,99189.42
2023-02-02T15:34:40.311Z,99189.77
2023-02-02T15:37:16.108Z,99196.35
2023-02-02T15:39:45.530Z,99197.41
2023-02-02T15:42:52.421Z,99198.83
2023-02-02T15:45:49.568Z,99200.52
2023-02-02T15:48:24.856Z,99201.82
2023-02-02T15:50:56.691Z,99198.91
2023-02-02T15:53:34.516Z,99207.85
2023-02-02T15:56:06.737Z,99204.84
2023-02-02T15:58:33.914Z,99204.36
2023-02-02T16:01:04.999Z,99205.48
2023-02-02T16:03:38.109Z,99207.32
2023-02-02T16:06:07.727Z,99209.27
2023-02-02T16:08:35.990Z,99213.55
2023-02-02T16:11:03.685Z,99210.23
2023-02-02T16:13:31.433Z,99211.38
2023-02-02T16:16:03.262Z,99213.95
2023-02-02T16:18:34.865Z,99211.48
2023-02-02T16:21:06.304Z,99214.21
2023-02-02T16:23:36.304Z,99216.57
2023-02-02T16:26:06.064Z,99220.80
2023-02-02T16:28:32.954Z,99223.94
2023-02-02T16:31:02.353Z,99224.59
2023-02-02T16:33:38.723Z,99223.56
2023-02-02T16:36:26.561Z,99225.42
2023-02-02T16:38:57.107Z,99226.16
2023-02-02T16:41:32.991Z,99231.23
2023-02-02T16:44:32.465Z,99234.71
2023-02-02T16:47:01.157Z,99238.15
2023-02-02T16:49:29.588Z,99240.22
2023-02-02T16:52:18.281Z,99243.58
2023-02-02T16:54:53.225Z,99249.02
2023-02-02T16:57:26.196Z,99250.99
2023-02-02T16:59:54.582Z,99248.75
2023-02-02T17:02:39.910Z,99249.64
2023-02-02T17:05:15.370Z,99253.49
2023-02-02T17:07:46.431Z,99255.17
2023-02-02T17:10:17.553Z,99260.27
2023-02-02T17:12:45.301Z,99261.70
2023-02-02T17:15:17.936Z,99266.44
2023-02-02T17:17:47.728Z,99263.88
2023-02-02T17:20:17.823Z,99263.02
2023-02-02T17:22:55.974Z,99261.61
2023-02-02T17:25:27.976Z,99255.84
2023-02-02T17:27:56.036Z,99258.22
2023-02-02T17:30:23.879Z,99260.19
2023-02-02T17:32:50.885Z,99263.27
2023-02-02T17:35:23.294Z,99263.10
2023-02-02T17:37:52.125Z,99271.09
2023-02-02T17:40:20.426Z,99272.30
2023-02-02T17:42:48.937Z,99274.19
2023-02-02T17:45:24.521Z,99275.52
2023-02-02T17:47:54.856Z,99275.61
2023-02-02T17:50:21.906Z,99276.17
2023-02-02T17:52:49.227Z,99278.38
2023-02-02T17:55:29.873Z,99282.61
2023-02-02T17:57:56.712Z,99283.80
2023-02-02T18:00:24.723Z,99285.94
2023-02-02T18:02:55.263Z,99285.87
2023-02-02T18:05:23.640Z,99287.09
2023-02-02T18:07:51.028Z,99287.62
2023-02-02T18:10:24.221Z,99291.41
2023-02-02T18:12:51.841Z,99291.74
2023-02-02T18:15:18.897Z,99291.39
2023-02-02T18:17:45.834Z,99290.33
